Time;durP1;ratioP1;P1;durP2;ratioP2;P2;SDS_P1;SDS_P2;PMS_P1;PMS_P2;Temp;Humidity;BMP_temperature;BMP_pressure;BME280_temperature;BME280_humidity;BME280_pressure;Samples;Min_cycle;Max_cycle;Signal;HPM_P1;HPM_P2
2023/08/30 00:01:35;;;;;;;4.57;2.60;;;21.30;51.10;;;;;;5074402;28;20471;-75
2023/08/30 00:04:03;;;;;;;5.50;2.85;;;21.50;51.70;;;;;;5074537;28;20501;-75
2023/08/30 00:06:31;;;;;;;4.88;2.60;;;21.70;50.20;;;;;;5070006;28;20041;-79
2023/08/30 00:08:59;;;;;;;7.82;2.85;;;21.80;49.90;;;;;;5076932;28;20525;-81
2023/08/30 00:11:27;;;;;;;5.82;2.47;;;21.80;49.30;;;;;;5079009;28;20028;-75
2023/08/30 00:14:02;;;;;;;5.28;2.58;;;21.90;49.10;;;;;;5073239;28;20078;-76
2023/08/30 00:16:31;;;;;;;5.78;2.50;;;22.10;49.30;;;;;;5074852;28;20542;-80
2023/08/30 00:18:58;;;;;;;5.18;2.72;;;22.30;48.10;;;;;;5069702;28;20379;-75
2023/08/30 00:21:27;;;;;;;3.85;2.20;;;22.50;48.20;;;;;;5074852;28;20028;-77
2023/08/30 00:23:54;;;;;;;4.47;2.42;;;22.80;47.00;;;;;;5082438;28;20031;-80
2023/08/30 00:26:21;;;;;;;3.60;2.30;;;23.10;46.30;;;;;;5076372;28;20094;-79
2023/08/30 00:28:49;;;;;;;5.72;2.47;;;23.20;46.20;;;;;;5084382;28;20107;-81
2023/08/30 00:31:16;;;;;;;4.53;2.20;;;23.30;45.60;;;;;;5084362;28;20020;-77
2023/08/30 00:33:44;;;;;;;5.40;2.58;;;23.50;44.90;;;;;;5090163;28;20112;-90
2023/08/30 00:36:12;;;;;;;6.68;2.50;;;23.70;44.50;;;;;;5078011;28;20548;-79
2023/08/30 00:38:39;;;;;;;6.03;2.60;;;24.00;44.10;;;;;;5074840;28;20052;-77
2023/08/30 00:41:08;;;;;;;6.82;2.25;;;24.30;44.10;;;;;;5077365;28;20024;-79
2023/08/30 00:43:35;;;;;;;5.63;2.05;;;24.40;43.00;;;;;;5065582;28;20067;-79
2023/08/30 00:46:02;;;;;;;3.67;1.88;;;24.60;42.60;;;;;;5076430;28;20028;-75
2023/08/30 00:48:30;;;;;;;4.18;2.25;;;24.80;42.60;;;;;;5086060;28;20059;-76
2023/08/30 00:50:57;;;;;;;5.90;2.33;;;25.00;40.70;;;;;;5087173;28;20017;-74
2023/08/30 00:53:25;;;;;;;5.53;2.03;;;25.10;39.80;;;;;;5086988;28;20056;-74
2023/08/30 00:55:52;;;;;;;2.20;1.65;;;25.10;40.90;;;;;;5084126;28;20048;-75
2023/08/30 00:58:20;;;;;;;3.55;1.90;;;25.10;40.50;;;;;;5080423;28;20043;-74
2023/08/30 01:00:47;;;;;;;7.28;1.95;;;25.20;39.30;;;;;;5090622;28;20065;-76
2023/08/30 01:03:15;;;;;;;3.25;2.15;;;25.30;39.10;;;;;;5078216;28;20039;-86
2023/08/30 01:05:42;;;;;;;2.63;1.92;;;25.40;40.50;;;;;;5094376;28;20016;-75
2023/08/30 01:08:11;;;;;;;3.47;1.75;;;25.40;38.40;;;;;;5085444;28;20028;-80
2023/08/30 01:11:02;;;;;;;6.93;2.15;;;25.50;38.00;;;;;;5079334;28;20021;-74
2023/08/30 01:13:34;;;;;;;4.38;2.10;;;25.40;39.10;;;;;;5078169;28;20049;-78
2023/08/30 01:16:02;;;;;;;3.65;1.60;;;25.60;37.90;;;;;;5082841;28;20024;-75
2023/08/30 01:18:34;;;;;;;2.22;1.60;;;25.60;38.00;;;;;;5077167;28;20024;-74
2023/08/30 01:21:03;;;;;;;6.25;1.85;;;25.60;37.70;;;;;;5087278;28;20016;-74
2023/08/30 01:23:40;;;;;;;4.88;2.25;;;25.60;37.90;;;;;;5083240;28;20483;-75
2023/08/30 01:26:25;;;;;;;2.63;1.92;;;25.50;37.90;;;;;;5092510;28;20051;-75
2023/08/30 01:28:55;;;;;;;3.38;1.80;;;25.50;38.50;;;;;;5063844;28;20012;-74
2023/08/30 01:31:24;;;;;;;2.47;1.60;;;25.50;38.20;;;;;;5087492;28;20032;-74
2023/08/30 01:33:52;;;;;;;1.98;1.52;;;25.60;37.40;;;;;;5079894;28;20016;-83
2023/08/30 01:36:19;;;;;;;6.60;2.05;;;25.60;37.70;;;;;;5089987;28;20016;-74
2023/08/30 01:38:47;;;;;;;2.60;1.58;;;25.60;37.00;;;;;;5077076;28;20480;-74
2023/08/30 01:41:15;;;;;;;2.35;1.52;;;25.60;37.20;;;;;;5084549;28;20020;-80
2023/08/30 01:43:44;;;;;;;3.22;1.70;;;25.60;36.70;;;;;;5084870;28;20108;-80
2023/08/30 01:46:12;;;;;;;2.03;1.40;;;25.60;37.50;;;;;;5076772;28;20395;-89
2023/08/30 01:48:41;;;;;;;4.57;1.67;;;25.70;36.50;;;;;;5082245;28;20056;-77
2023/08/30 01:51:09;;;;;;;2.10;1.60;;;25.70;36.80;;;;;;5071982;28;20047;-74
2023/08/30 01:53:37;;;;;;;3.80;1.77;;;25.80;37.20;;;;;;5080861;28;20474;-75
2023/08/30 01:56:05;;;;;;;2.90;1.70;;;25.70;36.00;;;;;;5082896;28;20106;-79
2023/08/30 01:58:32;;;;;;;2.47;1.52;;;25.60;36.60;;;;;;5085496;28;20031;-74
2023/08/30 02:01:01;;;;;;;2.60;1.35;;;25.70;37.00;;;;;;5085872;28;20016;-74
2023/08/30 02:03:28;;;;;;;6.50;1.60;;;25.70;37.00;;;;;;5071698;28;20471;-75
2023/08/30 02:06:13;;;;;;;3.67;1.60;;;25.80;36.60;;;;;;5071697;28;20017;-75
2023/08/30 02:09:03;;;;;;;4.93;1.50;;;25.80;36.40;;;;;;5072787;28;20031;-75
2023/08/30 02:11:34;;;;;;;2.00;1.60;;;25.80;36.80;;;;;;5071882;28;20048;-76
2023/08/30 02:14:07;;;;;;;2.42;1.42;;;25.80;36.10;;;;;;5074297;28;20021;-75
2023/08/30 02:16:35;;;;;;;2.35;1.42;;;25.80;36.40;;;;;;5066846;28;20617;-74
2023/08/30 02:19:03;;;;;;;3.13;1.58;;;25.80;37.20;;;;;;5080257;28;20021;-74
2023/08/30 02:21:30;;;;;;;7.90;1.70;;;25.80;36.60;;;;;;5080213;28;20027;-75
2023/08/30 02:23:58;;;;;;;2.15;1.50;;;25.80;36.90;;;;;;5083853;28;20459;-75
2023/08/30 02:26:25;;;;;;;2.72;1.40;;;25.80;37.40;;;;;;5083089;28;20052;-74
2023/08/30 02:28:53;;;;;;;1.85;1.45;;;25.80;36.50;;;;;;5083067;28;20020;-74
2023/08/30 02:31:20;;;;;;;3.20;1.50;;;25.80;36.70;;;;;;5073671;28;20090;-75
2023/08/30 02:33:47;;;;;;;1.73;1.33;;;25.80;36.60;;;;;;5067234;28;20094;-78
2023/08/30 02:36:15;;;;;;;1.63;1.30;;;25.80;36.60;;;;;;5073144;28;20153;-74
2023/08/30 02:38:42;;;;;;;3.63;1.58;;;25.80;37.50;;;;;;5075686;28;20505;-75
2023/08/30 02:41:10;;;;;;;3.88;1.63;;;25.80;36.70;;;;;;5074685;28;20494;-73
2023/08/30 02:43:38;;;;;;;5.88;1.55;;;25.80;36.80;;;;;;5090880;28;20028;-83
2023/08/30 02:46:06;;;;;;;3.13;1.30;;;25.80;36.40;;;;;;5089056;28;20056;-77
2023/08/30 02:48:34;;;;;;;2.05;1.58;;;25.80;36.50;;;;;;5079842;28;20025;-89
2023/08/30 02:51:01;;;;;;;2.90;1.40;;;25.90;36.60;;;;;;5082643;28;20069;-76
2023/08/30 02:53:30;;;;;;;1.63;1.50;;;25.90;36.10;;;;;;5077663;28;20036;-75
2023/08/30 02:55:57;;;;;;;2.05;1.40;;;25.90;36.40;;;;;;5075235;28;20093;-75
2023/08/30 02:58:25;;;;;;;4.20;1.40;;;26.00;35.70;;;;;;5082551;28;20033;-75
2023/08/30 03:00:53;;;;;;;3.47;1.80;;;26.00;36.00;;;;;;5071433;28;20024;-74
2023/08/30 03:03:20;;;;;;;2.20;1.45;;;25.90;36.20;;;;;;5075450;28;20390;-73
2023/08/30 03:05:48;;;;;;;1.70;1.40;;;25.90;35.90;;;;;;5087189;28;20366;-74
2023/08/30 03:08:15;;;;;;;2.00;1.60;;;26.00;36.40;;;;;;5079291;28;20037;-73
2023/08/30 03:10:42;;;;;;;2.72;1.50;;;26.00;36.70;;;;;;5084603;28;20066;-73
2023/08/30 03:13:09;;;;;;;3.30;1.27;;;26.10;37.30;;;;;;5081715;28;20140;-75
2023/08/30 03:15:37;;;;;;;1.80;1.40;;;26.20;36.10;;;;;;5084864;28;20025;-73
2023/08/30 03:18:04;;;;;;;1.83;1.35;;;26.30;36.40;;;;;;5088720;28;20023;-74
2023/08/30 03:20:32;;;;;;;1.45;1.35;;;26.30;35.90;;;;;;5086381;28;20048;-73
2023/08/30 03:22:59;;;;;;;1.85;1.50;;;26.20;35.90;;;;;;5079879;28;20409;-73
2023/08/30 03:25:30;;;;;;;2.30;1.50;;;26.30;35.60;;;;;;5093819;28;20406;-74
2023/08/30 03:27:57;;;;;;;3.03;1.23;;;26.30;35.10;;;;;;5082203;28;20032;-74
2023/08/30 03:30:25;;;;;;;2.53;1.42;;;26.40;35.00;;;;;;5084930;28;20103;-73
2023/08/30 03:32:52;;;;;;;1.73;1.40;;;26.40;34.60;;;;;;5079262;28;20026;-74
2023/08/30 03:35:21;;;;;;;1.90;1.35;;;26.50;34.10;;;;;;5087132;28;20020;-73
2023/08/30 03:37:48;;;;;;;2.45;1.40;;;26.50;34.60;;;;;;5086731;28;20063;-74
2023/08/30 03:40:16;;;;;;;3.80;1.25;;;26.50;34.60;;;;;;5076894;28;20035;-75
2023/08/30 03:42:44;;;;;;;1.90;1.30;;;26.50;34.50;;;;;;5091087;28;20028;-76
2023/08/30 03:45:14;;;;;;;3.05;1.35;;;26.60;34.60;;;;;;5080758;28;20690;-78
2023/08/30 03:47:41;;;;;;;4.13;1.27;;;26.70;32.70;;;;;;5082673;28;20032;-76
2023/08/30 03:50:09;;;;;;;1.90;1.00;;;26.60;33.60;;;;;;5082203;28;20028;-77
2023/08/30 03:52:37;;;;;;;1.88;1.40;;;26.50;34.30;;;;;;5076205;28;20099;-78
2023/08/30 03:55:04;;;;;;;2.67;1.40;;;26.40;33.60;;;;;;5091495;28;20069;-76
2023/08/30 03:57:32;;;;;;;2.88;1.30;;;26.30;32.80;;;;;;5078928;28;20063;-78
2023/08/30 03:59:59;;;;;;;3.72;1.40;;;26.30;33.40;;;;;;5086717;28;20462;-77
2023/08/30 04:02:26;;;;;;;1.45;1.23;;;26.20;33.80;;;;;;5076708;28;20383;-77
2023/08/30 04:04:54;;;;;;;2.33;1.25;;;26.10;33.90;;;;;;5089623;28;20236;-75
2023/08/30 04:07:21;;;;;;;3.60;1.45;;;26.00;33.80;;;;;;5081836;28;20395;-76
2023/08/30 04:09:48;;;;;;;2.30;1.45;;;26.00;32.80;;;;;;5079813;28;20375;-79
2023/08/30 04:12:16;;;;;;;2.78;1.42;;;25.90;33.50;;;;;;5073115;28;20028;-86
2023/08/30 04:14:43;;;;;;;1.75;1.25;;;25.80;33.70;;;;;;5090776;28;20036;-80
2023/08/30 04:17:10;;;;;;;2.30;1.35;;;25.80;34.10;;;;;;5080309;28;20027;-78
2023/08/30 04:19:38;;;;;;;4.22;2.22;;;25.80;34.30;;;;;;5083633;28;20023;-80
2023/08/30 04:22:05;;;;;;;5.10;2.70;;;25.70;35.90;;;;;;5071804;28;20043;-77
2023/08/30 04:24:32;;;;;;;8.57;2.70;;;25.60;38.70;;;;;;5090380;28;20032;-82
2023/08/30 04:27:00;;;;;;;5.50;3.13;;;25.60;39.90;;;;;;5073388;28;20040;-79
2023/08/30 04:29:27;;;;;;;6.10;3.00;;;25.50;40.90;;;;;;5071390;28;20031;-77
2023/08/30 04:31:55;;;;;;;3.92;2.83;;;25.50;41.30;;;;;;5054474;28;22524;-77
2023/08/30 04:34:22;;;;;;;3.70;2.60;;;25.30;42.40;;;;;;5067193;28;20571;-76
2023/08/30 04:36:50;;;;;;;5.78;2.95;;;25.20;42.80;;;;;;5067931;28;20059;-78
2023/08/30 04:39:17;;;;;;;5.65;2.40;;;25.10;43.30;;;;;;5067368;28;20446;-76
2023/08/30 04:41:45;;;;;;;4.40;3.05;;;24.90;44.30;;;;;;5066706;28;20395;-77
2023/08/30 04:44:13;;;;;;;4.55;2.53;;;24.80;44.40;;;;;;5068495;28;20024;-76
2023/08/30 04:46:40;;;;;;;5.30;2.85;;;24.70;45.00;;;;;;5069517;28;20509;-77
2023/08/30 04:49:07;;;;;;;3.80;2.95;;;24.60;45.90;;;;;;5068546;28;20036;-75
2023/08/30 04:51:36;;;;;;;6.30;2.97;;;24.50;46.00;;;;;;5067183;28;20036;-77
2023/08/30 04:54:03;;;;;;;4.60;2.75;;;24.40;46.60;;;;;;5068568;28;20111;-76
2023/08/30 04:56:31;;;;;;;6.10;3.10;;;24.30;47.10;;;;;;5068718;28;20056;-76
2023/08/30 04:58:58;;;;;;;4.75;2.60;;;24.20;47.50;;;;;;5070375;28;20107;-77
2023/08/30 05:01:26;;;;;;;5.40;2.55;;;24.20;47.70;;;;;;5066160;28;20483;-76
2023/08/30 05:03:54;;;;;;;6.38;3.00;;;24.00;48.10;;;;;;5070247;28;20463;-77
2023/08/30 05:06:21;;;;;;;4.90;2.90;;;23.80;48.70;;;;;;5069295;28;20479;-76
2023/08/30 05:08:48;;;;;;;5.63;2.90;;;23.80;49.30;;;;;;5067409;28;20048;-77
2023/08/30 05:11:16;;;;;;;4.57;2.78;;;23.70;50.00;;;;;;5066257;28;20046;-76
2023/08/30 05:13:43;;;;;;;4.50;2.45;;;23.50;50.40;;;;;;5068535;28;20017;-75
2023/08/30 05:16:12;;;;;;;6.82;2.70;;;23.50;51.30;;;;;;5068072;28;20756;-77
2023/08/30 05:18:39;;;;;;;6.13;2.65;;;23.50;51.30;;;;;;5068224;28;20020;-76
2023/08/30 05:21:06;;;;;;;6.53;2.63;;;23.40;51.40;;;;;;5067064;28;20103;-76
2023/08/30 05:23:35;;;;;;;7.68;2.65;;;23.40;51.60;;;;;;5069128;28;20020;-77
2023/08/30 05:26:03;;;;;;;6.65;2.92;;;23.30;51.80;;;;;;5069929;28;20068;-76
2023/08/30 05:28:33;;;;;;;4.60;2.53;;;23.30;54.10;;;;;;5071567;28;20491;-75
2023/08/30 05:31:01;;;;;;;3.90;2.47;;;23.20;55.90;;;;;;5066910;28;20422;-75
2023/08/30 05:33:28;;;;;;;4.13;2.83;;;23.00;56.50;;;;;;5072274;28;20527;-76
2023/08/30 05:35:56;;;;;;;5.22;2.50;;;23.00;57.90;;;;;;5069453;28;20028;-76
2023/08/30 05:38:23;;;;;;;2.65;2.13;;;22.80;58.30;;;;;;5069466;28;20032;-77
2023/08/30 05:40:50;;;;;;;4.07;1.90;;;22.80;57.90;;;;;;5067704;28;20025;-76
2023/08/30 05:43:18;;;;;;;4.75;2.72;;;22.70;57.60;;;;;;5067580;28;20026;-75
2023/08/30 05:45:45;;;;;;;6.40;2.55;;;22.60;58.20;;;;;;5069070;28;20024;-77
2023/08/30 05:48:12;;;;;;;2.83;2.00;;;22.60;58.40;;;;;;5067722;28;20056;-77
2023/08/30 05:50:40;;;;;;;4.88;2.05;;;22.50;58.20;;;;;;5065950;28;20034;-77
2023/08/30 05:53:08;;;;;;;3.28;2.03;;;22.40;58.10;;;;;;5066870;28;20417;-77
2023/08/30 05:55:35;;;;;;;2.78;1.88;;;22.40;57.80;;;;;;5067052;28;20700;-78
2023/08/30 05:58:03;;;;;;;3.53;2.13;;;22.30;57.50;;;;;;5065254;28;20467;-75
2023/08/30 06:00:30;;;;;;;8.35;3.42;;;22.30;57.30;;;;;;5066545;28;20036;-80
2023/08/30 06:02:58;;;;;;;6.22;2.42;;;22.20;59.50;;;;;;5067433;28;20082;-76
2023/08/30 06:05:29;;;;;;;4.55;2.85;;;21.90;61.40;;;;;;5066486;28;20116;-76
2023/08/30 06:07:57;;;;;;;5.88;2.90;;;21.80;63.00;;;;;;5066148;28;20564;-77
2023/08/30 06:10:24;;;;;;;7.18;2.83;;;21.50;65.00;;;;;;5066735;28;20112;-77
2023/08/30 06:12:53;;;;;;;6.18;2.67;;;21.30;65.50;;;;;;5071303;28;20044;-79
2023/08/30 06:15:20;;;;;;;3.38;2.00;;;20.90;64.70;;;;;;5071564;28;20062;-77
2023/08/30 06:17:48;;;;;;;5.18;1.80;;;20.70;62.20;;;;;;5071295;28;20021;-79
2023/08/30 06:20:15;;;;;;;6.35;2.03;;;20.40;61.70;;;;;;5069080;28;20601;-77
2023/08/30 06:22:43;;;;;;;14.55;3.17;;;20.20;61.90;;;;;;5071019;28;20445;-77
2023/08/30 06:25:11;;;;;;;11.48;3.40;;;19.80;63.90;;;;;;5069824;28;20037;-76
2023/08/30 06:27:43;;;;;;;8.48;2.70;;;19.20;65.50;;;;;;5070647;28;20071;-77
2023/08/30 06:30:12;;;;;;;8.75;2.67;;;18.80;67.50;;;;;;5068539;28;20131;-75
2023/08/30 06:32:39;;;;;;;7.35;2.80;;;18.50;68.90;;;;;;5070505;28;20044;-75
2023/08/30 06:35:07;;;;;;;4.18;2.15;;;18.20;70.00;;;;;;5070528;28;20024;-75
2023/08/30 06:37:34;;;;;;;6.28;2.35;;;17.90;71.10;;;;;;5070445;28;20036;-76
2023/08/30 06:40:03;;;;;;;5.22;2.03;;;17.80;71.90;;;;;;5068598;28;20031;-76
2023/08/30 06:42:30;;;;;;;5.50;2.05;;;17.80;73.10;;;;;;5070364;28;20814;-76
2023/08/30 06:44:58;;;;;;;4.93;1.83;;;17.80;74.40;;;;;;5070154;28;20124;-76
2023/08/30 06:47:25;;;;;;;4.43;1.70;;;17.80;74.50;;;;;;5070057;28;20040;-76
2023/08/30 06:49:52;;;;;;;2.55;1.42;;;17.90;75.30;;;;;;5070107;28;20104;-76
2023/08/30 06:52:20;;;;;;;3.38;1.60;;;17.90;74.70;;;;;;5075629;28;20029;-77
2023/08/30 06:54:47;;;;;;;5.90;1.60;;;17.70;74.30;;;;;;5075364;28;20104;-76
2023/08/30 06:57:14;;;;;;;3.17;1.45;;;17.70;74.50;;;;;;5075236;28;20025;-75
2023/08/30 06:59:42;;;;;;;2.60;1.38;;;17.60;75.40;;;;;;5075493;28;20466;-76
2023/08/30 07:02:10;;;;;;;2.83;1.20;;;17.60;75.60;;;;;;5072547;28;20035;-76
2023/08/30 07:04:37;;;;;;;2.97;1.50;;;17.60;76.10;;;;;;5075157;28;20023;-76
2023/08/30 07:07:04;;;;;;;2.75;1.65;;;17.70;76.00;;;;;;5074619;28;20119;-76
2023/08/30 07:09:33;;;;;;;2.40;1.30;;;17.70;75.40;;;;;;5074867;28;20048;-76
2023/08/30 07:12:01;;;;;;;2.10;1.33;;;17.60;75.70;;;;;;5073720;28;20483;-76
2023/08/30 07:14:29;;;;;;;2.78;1.30;;;17.50;75.30;;;;;;5074256;28;20055;-86
2023/08/30 07:16:56;;;;;;;2.65;1.30;;;17.40;75.70;;;;;;5074214;28;20016;-76
2023/08/30 07:19:23;;;;;;;1.63;1.13;;;17.30;75.40;;;;;;5074344;28;20029;-76
2023/08/30 07:21:51;;;;;;;10.68;1.48;;;17.30;75.90;;;;;;5072972;28;20059;-76
2023/08/30 07:24:18;;;;;;;3.13;1.10;;;17.30;76.00;;;;;;5073806;28;20394;-76
2023/08/30 07:26:45;;;;;;;1.48;1.17;;;17.20;75.00;;;;;;5074452;28;20041;-77
2023/08/30 07:29:13;;;;;;;4.95;1.05;;;17.20;75.90;;;;;;5075234;28;20028;-78
2023/08/30 07:31:41;;;;;;;1.65;1.17;;;17.10;76.10;;;;;;5075439;28;20021;-76
2023/08/30 07:34:08;;;;;;;1.50;1.40;;;17.10;76.30;;;;;;5075094;28;20165;-77
2023/08/30 07:36:36;;;;;;;1.88;1.33;;;17.10;76.70;;;;;;5075041;28;20052;-77
2023/08/30 07:39:03;;;;;;;1.67;1.15;;;17.00;76.70;;;;;;5074910;28;20377;-81
2023/08/30 07:41:31;;;;;;;1.90;1.20;;;17.00;77.00;;;;;;5075026;28;20070;-83
2023/08/30 07:44:00;;;;;;;2.63;1.35;;;16.90;77.50;;;;;;5073898;28;20484;-79
2023/08/30 07:46:28;;;;;;;1.85;1.38;;;16.90;77.90;;;;;;5074908;28;20041;-83
2023/08/30 07:48:55;;;;;;;1.67;1.27;;;16.80;77.70;;;;;;5074697;28;20028;-85
2023/08/30 07:51:22;;;;;;;1.52;1.40;;;16.80;77.60;;;;;;5074664;28;20090;-77
2023/08/30 07:53:50;;;;;;;2.47;1.35;;;16.70;77.80;;;;;;5074705;28;20031;-77
2023/08/30 07:56:17;;;;;;;1.63;1.33;;;16.70;78.20;;;;;;5074733;28;20020;-77
2023/08/30 07:58:44;;;;;;;3.13;1.27;;;16.70;77.90;;;;;;5074811;28;20028;-84
2023/08/30 08:01:12;;;;;;;2.13;1.20;;;16.60;77.80;;;;;;5074577;28;20490;-82
2023/08/30 08:03:41;;;;;;;2.67;1.55;;;16.60;78.30;;;;;;5074563;28;20450;-80
2023/08/30 08:06:08;;;;;;;3.03;1.38;;;16.60;78.70;;;;;;5074246;28;20055;-81
2023/08/30 08:08:36;;;;;;;3.63;1.92;;;16.70;78.70;;;;;;5074450;28;20030;-78
2023/08/30 08:11:03;;;;;;;4.35;2.22;;;16.70;79.10;;;;;;5074228;28;20427;-78
2023/08/30 08:13:31;;;;;;;3.70;2.20;;;16.70;79.20;;;;;;5074330;28;20025;-79
2023/08/30 08:15:58;;;;;;;2.78;1.60;;;16.70;79.50;;;;;;5074445;28;20051;-77
2023/08/30 08:18:26;;;;;;;1.70;1.30;;;16.70;79.60;;;;;;5074234;28;20051;-78
2023/08/30 08:20:54;;;;;;;3.25;1.95;;;16.60;79.20;;;;;;5073897;28;20031;-77
2023/08/30 08:23:21;;;;;;;3.40;1.67;;;16.60;79.50;;;;;;5074234;28;20484;-79
2023/08/30 08:25:49;;;;;;;3.00;2.05;;;16.50;79.90;;;;;;5074011;28;20048;-77
2023/08/30 08:28:17;;;;;;;5.53;2.20;;;16.60;80.00;;;;;;5073989;28;20468;-79
2023/08/30 08:30:45;;;;;;;5.78;1.98;;;16.50;80.00;;;;;;5074040;28;20368;-78
2023/08/30 08:33:12;;;;;;;2.90;2.00;;;16.50;80.50;;;;;;5073437;28;20032;-80
2023/08/30 08:35:39;;;;;;;3.97;2.70;;;16.50;80.30;;;;;;5073847;28;20031;-78
2023/08/30 08:38:07;;;;;;;6.72;3.63;;;16.50;80.20;;;;;;5073848;28;20021;-79
2023/08/30 08:40:41;;;;;;;7.20;3.17;;;16.50;80.10;;;;;;5073825;28;20084;-79
2023/08/30 08:43:15;;;;;;;6.28;2.83;;;16.50;80.10;;;;;;5073476;28;20028;-78
2023/08/30 08:45:44;;;;;;;6.00;3.15;;;16.50;80.30;;;;;;5072369;28;20445;-78
2023/08/30 08:48:13;;;;;;;6.68;3.20;;;16.50;80.50;;;;;;5073630;28;20051;-79
2023/08/30 08:50:40;;;;;;;6.97;3.28;;;16.50;80.50;;;;;;5073524;28;20103;-78
2023/08/30 08:53:08;;;;;;;6.35;3.00;;;16.50;80.50;;;;;;5073475;28;20021;-80
2023/08/30 08:55:38;;;;;;;6.45;3.03;;;16.50;80.50;;;;;;5073530;28;20028;-78
2023/08/30 08:58:05;;;;;;;5.28;2.60;;;16.40;80.70;;;;;;5073242;28;20039;-77
2023/08/30 09:00:33;;;;;;;5.25;2.75;;;16.30;80.60;;;;;;5073550;28;20046;-76
2023/08/30 09:03:01;;;;;;;7.05;2.40;;;16.30;80.90;;;;;;5073253;28;20112;-77
2023/08/30 09:05:29;;;;;;;4.63;3.05;;;16.20;81.10;;;;;;5073226;28;20032;-76
2023/08/30 09:07:57;;;;;;;5.97;3.03;;;16.10;81.40;;;;;;5073151;28;20394;-77
2023/08/30 09:10:24;;;;;;;6.72;3.00;;;16.10;81.70;;;;;;5073357;28;20023;-77
2023/08/30 09:12:52;;;;;;;11.15;4.03;;;16.00;81.80;;;;;;5073149;28;20020;-77
2023/08/30 09:15:19;;;;;;;10.10;3.63;;;16.00;82.30;;;;;;5073201;28;20043;-78
2023/08/30 09:17:46;;;;;;;6.43;3.80;;;16.00;82.90;;;;;;5073343;28;20475;-76
2023/08/30 09:20:14;;;;;;;7.72;3.85;;;15.80;82.60;;;;;;5073209;28;20028;-78
2023/08/30 09:22:43;;;;;;;6.72;2.88;;;15.80;82.60;;;;;;5073189;28;20033;-77
2023/08/30 09:25:12;;;;;;;6.97;3.10;;;15.80;82.70;;;;;;5072768;28;20037;-77
2023/08/30 09:27:41;;;;;;;5.93;3.10;;;15.70;83.20;;;;;;5073319;28;20064;-77
2023/08/30 09:30:10;;;;;;;7.55;3.35;;;15.70;83.10;;;;;;5073104;28;20017;-76
2023/08/30 09:32:44;;;;;;;6.25;2.92;;;15.70;82.90;;;;;;5073181;28;20060;-77
2023/08/30 09:35:12;;;;;;;5.65;2.63;;;15.60;83.10;;;;;;5072846;28;20133;-83
2023/08/30 09:37:39;;;;;;;6.60;3.03;;;15.60;83.30;;;;;;5073425;28;20103;-76
2023/08/30 09:40:07;;;;;;;6.50;2.70;;;15.60;83.60;;;;;;5073030;28;20021;-76
2023/08/30 09:42:35;;;;;;;7.95;2.45;;;15.70;83.30;;;;;;5073062;28;20028;-76
2023/08/30 09:45:05;;;;;;;6.45;2.30;;;15.60;83.50;;;;;;5072210;28;20050;-77
2023/08/30 09:47:32;;;;;;;3.88;2.15;;;15.50;83.50;;;;;;5072970;28;20029;-77
2023/08/30 09:50:02;;;;;;;5.82;2.30;;;15.30;83.40;;;;;;5072672;28;20372;-78
2023/08/30 09:52:32;;;;;;;6.20;2.40;;;15.20;83.50;;;;;;5072797;28;20471;-79
2023/08/30 09:55:00;;;;;;;5.97;2.10;;;15.20;84.00;;;;;;5072710;28;20103;-78
2023/08/30 09:57:28;;;;;;;5.53;2.50;;;15.20;84.00;;;;;;5072931;28;20531;-80
2023/08/30 09:59:57;;;;;;;3.88;2.17;;;15.10;84.10;;;;;;5072740;28;20032;-78
2023/08/30 10:02:25;;;;;;;4.70;2.50;;;15.00;84.40;;;;;;5072663;28;20406;-78
2023/08/30 10:04:53;;;;;;;6.50;2.63;;;15.00;84.40;;;;;;5072469;28;20097;-78
2023/08/30 10:07:21;;;;;;;5.65;2.72;;;15.00;84.60;;;;;;5072646;28;20086;-78
2023/08/30 10:09:50;;;;;;;6.07;2.90;;;15.00;84.90;;;;;;5072581;28;20378;-77
2023/08/30 10:12:23;;;;;;;5.10;2.50;;;15.10;84.90;;;;;;5072536;28;20029;-78
2023/08/30 10:14:51;;;;;;;4.82;1.92;;;15.10;84.80;;;;;;5072626;28;20104;-79
2023/08/30 10:17:21;;;;;;;5.20;2.10;;;15.10;84.60;;;;;;5072525;28;20028;-79
2023/08/30 10:19:50;;;;;;;8.82;2.78;;;15.10;84.60;;;;;;5072357;28;20024;-79
2023/08/30 10:22:18;;;;;;;7.00;2.92;;;15.10;84.60;;;;;;5072439;28;20073;-77
2023/08/30 10:24:56;;;;;;;6.50;2.40;;;15.10;84.60;;;;;;5072302;28;20037;-81
2023/08/30 10:27:26;;;;;;;4.70;2.38;;;15.00;84.50;;;;;;5072387;28;20082;-78
2023/08/30 10:29:54;;;;;;;5.00;2.40;;;15.00;84.60;;;;;;5072325;28;20031;-79
2023/08/30 10:32:22;;;;;;;4.68;1.90;;;15.00;84.70;;;;;;5072400;28;20052;-78
2023/08/30 10:34:53;;;;;;;4.18;2.05;;;14.90;85.10;;;;;;5072006;28;20024;-77
2023/08/30 10:37:27;;;;;;;3.55;2.40;;;15.10;85.40;;;;;;5071310;28;20048;-78
2023/08/30 10:40:03;;;;;;;3.88;2.50;;;15.10;85.30;;;;;;5072524;28;20487;-78
2023/08/30 10:42:32;;;;;;;4.35;2.42;;;15.20;85.20;;;;;;5071090;28;20024;-79
2023/08/30 10:45:00;;;;;;;5.60;2.30;;;15.20;85.10;;;;;;5072026;28;20052;-78
2023/08/30 10:47:32;;;;;;;6.60;2.30;;;15.20;85.20;;;;;;5072222;28;20111;-78
2023/08/30 10:50:04;;;;;;;4.43;2.30;;;15.20;84.90;;;;;;5070603;28;20016;-77
2023/08/30 10:52:32;;;;;;;4.80;1.90;;;15.20;85.10;;;;;;5070249;28;20540;-78
2023/08/30 10:55:14;;;;;;;4.07;2.03;;;15.10;85.10;;;;;;5070212;28;20021;-77
2023/08/30 10:57:46;;;;;;;2.60;1.90;;;15.20;85.00;;;;;;5073285;28;20467;-78
2023/08/30 11:00:21;;;;;;;4.22;1.75;;;15.10;84.80;;;;;;5074280;28;20523;-78
2023/08/30 11:02:53;;;;;;;3.35;2.20;;;15.10;84.80;;;;;;5074897;28;20505;-78
2023/08/30 11:05:26;;;;;;;3.97;1.85;;;15.20;84.50;;;;;;5075191;28;20043;-78
2023/08/30 11:07:54;;;;;;;4.03;1.77;;;15.20;84.50;;;;;;5075545;28;20025;-77
2023/08/30 11:10:22;;;;;;;3.00;1.95;;;15.10;84.10;;;;;;5074388;28;20028;-77
2023/08/30 11:12:50;;;;;;;2.22;1.42;;;15.20;83.90;;;;;;5073549;28;20043;-76
2023/08/30 11:15:18;;;;;;;3.85;1.58;;;15.10;83.60;;;;;;5073530;28;20184;-78
2023/08/30 11:17:45;;;;;;;3.05;1.45;;;15.10;83.40;;;;;;5073463;28;20023;-78
2023/08/30 11:20:20;;;;;;;2.75;1.63;;;15.10;83.30;;;;;;5073600;28;20081;-77
2023/08/30 11:22:49;;;;;;;1.30;1.20;;;15.10;83.10;;;;;;5074147;28;20475;-77
2023/08/30 11:25:16;;;;;;;2.97;1.50;;;15.10;82.90;;;;;;5074326;28;20044;-77
2023/08/30 11:27:45;;;;;;;3.15;1.55;;;15.10;82.70;;;;;;5074668;28;20036;-78
2023/08/30 11:30:13;;;;;;;2.50;1.40;;;15.10;82.50;;;;;;5075436;28;20546;-78
2023/08/30 11:32:44;;;;;;;3.60;1.40;;;15.10;82.30;;;;;;5075332;28;20032;-78
2023/08/30 11:35:13;;;;;;;2.15;1.60;;;15.10;82.30;;;;;;5075069;28;20107;-77
2023/08/30 11:37:42;;;;;;;2.88;1.60;;;15.10;82.30;;;;;;5075248;28;20024;-78
2023/08/30 11:40:11;;;;;;;2.72;1.60;;;15.10;82.00;;;;;;5075151;28;20078;-77
2023/08/30 11:42:39;;;;;;;2.95;1.60;;;15.10;82.00;;;;;;5074948;28;20027;-77
2023/08/30 11:45:09;;;;;;;2.25;1.63;;;15.10;82.20;;;;;;5074826;28;20471;-78
2023/08/30 11:47:36;;;;;;;1.77;1.45;;;15.10;82.20;;;;;;5075093;28;20147;-78
2023/08/30 11:50:06;;;;;;;2.50;1.60;;;15.10;82.30;;;;;;5076588;28;20464;-79
2023/08/30 11:52:36;;;;;;;2.30;1.55;;;15.10;82.40;;;;;;5078383;28;20463;-77
2023/08/30 11:55:03;;;;;;;5.22;1.75;;;15.00;82.50;;;;;;5077973;28;20104;-80
2023/08/30 11:57:37;;;;;;;4.90;1.90;;;15.00;82.80;;;;;;5075005;28;20490;-78
2023/08/30 12:00:11;;;;;;;5.88;2.05;;;15.00;83.00;;;;;;5074874;28;20021;-79
2023/08/30 12:02:44;;;;;;;3.83;2.10;;;15.00;83.20;;;;;;5074913;28;20031;-79
2023/08/30 12:05:15;;;;;;;2.60;2.10;;;15.00;83.50;;;;;;5074323;28;20069;-78
2023/08/30 12:07:42;;;;;;;5.70;2.60;;;15.00;83.90;;;;;;5074181;28;20035;-79
2023/08/30 12:10:13;;;;;;;8.70;5.00;;;15.00;84.00;;;;;;5074108;28;20021;-78
2023/08/30 12:12:46;;;;;;;4.25;2.40;;;15.10;84.40;;;;;;5074309;28;20054;-78
2023/08/30 12:15:15;;;;;;;3.55;1.67;;;15.20;84.50;;;;;;5071956;28;20111;-79
2023/08/30 12:17:43;;;;;;;1.70;1.60;;;15.20;84.00;;;;;;5071645;28;20023;-79
2023/08/30 12:20:20;;;;;;;3.53;2.10;;;15.10;84.10;;;;;;5073772;28;20519;-79
2023/08/30 12:22:49;;;;;;;2.42;1.77;;;15.10;84.30;;;;;;5072131;28;20371;-79
2023/08/30 12:25:22;;;;;;;1.85;1.50;;;15.00;84.20;;;;;;5073310;28;20028;-80
2023/08/30 12:27:50;;;;;;;4.03;1.50;;;15.00;84.30;;;;;;5073749;28;20426;-79
2023/08/30 12:30:18;;;;;;;3.50;1.75;;;15.00;84.50;;;;;;5073741;28;20052;-78
2023/08/30 12:32:47;;;;;;;4.22;2.28;;;15.00;84.90;;;;;;5081808;28;20073;-78
2023/08/30 12:35:15;;;;;;;2.50;1.80;;;15.10;85.20;;;;;;5083164;28;20437;-79
2023/08/30 12:37:42;;;;;;;3.65;2.00;;;15.20;85.20;;;;;;5082840;28;20031;-79
2023/08/30 12:40:11;;;;;;;2.40;2.00;;;15.10;84.80;;;;;;5080195;28;20020;-79
2023/08/30 12:42:39;;;;;;;2.70;1.40;;;15.10;84.80;;;;;;5081261;28;20059;-78
2023/08/30 12:45:07;;;;;;;3.63;2.50;;;15.10;85.10;;;;;;5073743;28;20043;-78
2023/08/30 12:47:34;;;;;;;3.63;2.47;;;15.20;85.60;;;;;;5073797;28;20059;-78
2023/08/30 12:50:02;;;;;;;4.30;2.40;;;15.20;85.50;;;;;;5073272;28;20410;-78
2023/08/30 12:52:29;;;;;;;2.35;2.03;;;15.20;85.10;;;;;;5073059;28;20475;-79